Time;durP1;ratioP1;P1;durP2;ratioP2;P2;SDS_P1;SDS_P2;PMS_P1;PMS_P2;Temp;Humidity;BMP_temperature;BMP_pressure;BME280_temperature;BME280_humidity;BME280_pressure;Samples;Min_cycle;Max_cycle;Signal;HPM_P1;HPM_P2
2024/03/15 00:02:50;;;;;;;5.70;3.42;;;;;;;10.67;67.26;99817.59;10399456;28;20049;-60
2024/03/15 00:07:52;;;;;;;9.13;3.75;;;;;;;10.61;67.41;99815.69;10392676;28;20139;-61
2024/03/15 00:12:53;;;;;;;8.73;4.53;;;;;;;10.62;67.19;99820.84;10388982;28;20053;-61
2024/03/15 00:17:55;;;;;;;7.30;3.70;;;;;;;10.61;67.45;99819.19;10388342;28;20049;-61
2024/03/15 00:22:56;;;;;;;6.40;2.83;;;;;;;10.49;67.63;99826.91;10392240;28;20475;-60
2024/03/15 00:27:58;;;;;;;5.50;2.95;;;;;;;10.52;67.72;99825.69;10375843;28;20049;-60
2024/03/15 00:32:59;;;;;;;7.78;3.47;;;;;;;10.64;67.47;99828.72;10390483;28;20065;-60
2024/03/15 00:38:02;;;;;;;5.88;3.80;;;;;;;10.69;67.22;99821.75;10391702;28;20050;-60
2024/03/15 00:43:04;;;;;;;8.82;2.70;;;;;;;10.76;67.39;99812.94;10393363;28;20053;-61
2024/03/15 00:48:06;;;;;;;10.85;2.53;;;;;;;10.82;67.46;99814.84;10393339;28;20059;-61
2024/03/15 00:53:08;;;;;;;8.35;3.53;;;;;;;10.86;67.20;99806.22;10394244;28;20067;-60
2024/03/15 00:58:10;;;;;;;4.35;3.03;;;;;;;10.85;67.63;99809.09;10375611;28;20474;-61
2024/03/15 01:03:11;;;;;;;9.27;2.90;;;;;;;10.83;67.90;99806.59;10388248;28;21288;-60
2024/03/15 01:08:13;;;;;;;5.70;2.58;;;;;;;10.80;67.96;99808.84;10390147;28;20132;-61
2024/03/15 01:13:15;;;;;;;4.72;2.58;;;;;;;10.78;67.48;99803.66;10388832;28;20056;-60
2024/03/15 01:18:16;;;;;;;5.15;2.53;;;;;;;10.77;67.49;99803.84;10397048;28;20049;-59
2024/03/15 01:23:19;;;;;;;5.15;2.55;;;;;;;10.74;67.88;99802.34;10417518;28;20041;-59
2024/03/15 01:28:21;;;;;;;5.85;2.63;;;;;;;10.70;67.59;99801.06;10398760;28;20121;-59
2024/03/15 01:33:22;;;;;;;7.07;2.85;;;;;;;10.69;67.62;99797.56;10401677;28;20064;-59
2024/03/15 01:38:24;;;;;;;8.55;2.88;;;;;;;10.69;67.84;99802.13;10421424;28;20049;-59
2024/03/15 01:43:26;;;;;;;6.40;3.25;;;;;;;10.77;67.50;99801.16;10419914;28;20112;-59
2024/03/15 01:48:27;;;;;;;7.40;3.13;;;;;;;10.83;67.72;99798.53;10417242;28;20073;-59
2024/03/15 01:53:29;;;;;;;4.18;3.25;;;;;;;10.88;67.29;99790.75;10423066;28;20072;-59
2024/03/15 01:58:31;;;;;;;6.63;2.65;;;;;;;10.87;67.58;99797.13;10424493;28;20046;-59
2024/03/15 02:03:34;;;;;;;3.60;2.20;;;;;;;10.86;67.52;99790.09;10419076;28;20157;-59
2024/03/15 02:08:36;;;;;;;6.55;2.88;;;;;;;10.83;67.98;99787.78;10426417;28;20407;-59
2024/03/15 02:13:37;;;;;;;6.82;2.63;;;;;;;10.83;67.63;99792.34;10425060;28;20188;-59
2024/03/15 02:18:39;;;;;;;6.07;2.28;;;;;;;10.81;67.59;99780.94;10423089;28;20080;-59
2024/03/15 02:23:42;;;;;;;2.35;2.05;;;;;;;10.75;67.60;99779.03;10426509;28;20076;-59
2024/03/15 02:28:43;;;;;;;5.90;2.38;;;;;;;10.68;68.06;99782.47;10417829;28;20176;-60
2024/03/15 02:33:45;;;;;;;4.90;2.30;;;;;;;10.66;67.90;99780.97;10395845;28;20522;-60
2024/03/15 02:38:49;;;;;;;4.55;3.05;;;;;;;10.61;68.04;99772.66;10398256;28;20068;-60
2024/03/15 02:43:53;;;;;;;13.98;7.00;;;;;;;10.61;67.93;99770.00;10399440;28;20133;-60
2024/03/15 02:48:54;;;;;;;11.27;6.90;;;;;;;10.48;68.31;99779.53;10398218;28;20132;-60
2024/03/15 02:53:56;;;;;;;11.93;8.15;;;;;;;10.38;68.63;99787.06;10395988;28;20095;-60
2024/03/15 02:58:57;;;;;;;10.43;5.45;;;;;;;10.25;68.91;99790.41;10391207;28;20049;-60
2024/03/15 03:03:59;;;;;;;11.43;5.40;;;;;;;10.23;68.80;99787.09;10394279;28;20047;-61
2024/03/15 03:09:01;;;;;;;9.57;4.45;;;;;;;10.21;68.64;99786.44;10395821;28;20560;-60
2024/03/15 03:14:04;;;;;;;6.57;4.15;;;;;;;10.21;68.81;99790.97;10394541;28;20649;-60
2024/03/15 03:19:06;;;;;;;6.18;3.35;;;;;;;10.16;68.84;99788.84;10377461;28;20060;-60
2024/03/15 03:24:07;;;;;;;9.55;4.75;;;;;;;10.13;68.52;99795.44;10392702;28;20041;-60
2024/03/15 03:29:09;;;;;;;5.82;3.92;;;;;;;10.13;68.72;99790.06;10396278;28;20045;-60
2024/03/15 03:34:10;;;;;;;4.95;3.25;;;;;;;10.10;68.65;99787.75;10394343;28;20370;-60
2024/03/15 03:39:13;;;;;;;5.90;3.67;;;;;;;10.07;68.84;99785.44;10395514;28;20111;-60
2024/03/15 03:44:16;;;;;;;6.75;4.10;;;;;;;10.11;68.89;99783.19;10394237;28;20128;-60
2024/03/15 03:49:18;;;;;;;10.77;4.03;;;;;;;10.20;68.79;99778.56;10393421;28;20045;-60
2024/03/15 03:54:19;;;;;;;7.00;3.25;;;;;;;10.30;68.87;99779.97;10391915;28;20132;-60
2024/03/15 03:59:21;;;;;;;6.18;2.95;;;;;;;10.36;68.88;99786.44;10393659;28;20049;-60
2024/03/15 04:04:23;;;;;;;6.43;3.85;;;;;;;10.42;69.30;99790.22;10395143;28;20173;-60
2024/03/15 04:09:24;;;;;;;8.77;5.03;;;;;;;10.49;69.40;99794.66;10391200;28;20516;-61
2024/03/15 04:14:26;;;;;;;8.90;4.97;;;;;;;10.68;69.56;99789.69;10392924;28;20552;-60
2024/03/15 04:19:28;;;;;;;8.30;5.05;;;;;;;10.85;69.56;99783.03;10390047;28;20049;-60
2024/03/15 04:24:34;;;;;;;9.43;5.75;;;;;;;11.03;69.46;99784.44;10391046;28;20395;-60
2024/03/15 04:29:36;;;;;;;5.68;4.13;;;;;;;11.15;69.31;99782.91;10393570;28;20085;-61
2024/03/15 04:34:38;;;;;;;7.75;5.35;;;;;;;11.26;69.62;99784.25;10395142;28;20071;-61
2024/03/15 04:39:39;;;;;;;12.63;5.03;;;;;;;11.29;69.44;99786.53;10392900;28;20045;-61
2024/03/15 04:44:41;;;;;;;11.70;5.47;;;;;;;11.18;69.59;99789.78;10393011;28;20053;-61
2024/03/15 04:49:43;;;;;;;7.72;5.43;;;;;;;11.04;69.71;99796.88;10401342;28;20683;-60
2024/03/15 04:54:45;;;;;;;9.18;5.75;;;;;;;10.94;69.72;99790.97;10418486;28;20100;-59
2024/03/15 04:59:46;;;;;;;10.27;5.82;;;;;;;10.88;70.28;99803.31;10413276;28;20117;-59
2024/03/15 05:04:49;;;;;;;11.32;6.03;;;;;;;10.82;70.50;99802.25;10413511;28;20045;-60
2024/03/15 05:09:50;;;;;;;10.25;6.15;;;;;;;10.77;70.51;99802.00;10415016;28;20050;-59
2024/03/15 05:14:52;;;;;;;11.93;6.13;;;;;;;10.73;70.84;99795.34;10412212;28;20077;-60
2024/03/15 05:19:53;;;;;;;13.10;7.50;;;;;;;10.78;70.54;99802.81;10416937;28;20122;-60
2024/03/15 05:24:55;;;;;;;12.63;7.07;;;;;;;10.74;70.84;99802.34;10425879;28;20053;-59
2024/03/15 05:29:59;;;;;;;12.73;6.72;;;;;;;10.67;70.69;99810.38;10432874;28;20174;-60
2024/03/15 05:35:01;;;;;;;10.88;6.10;;;;;;;10.65;71.10;99811.59;10429846;28;20061;-59
2024/03/15 05:40:05;;;;;;;15.68;7.70;;;;;;;10.68;70.81;99817.41;10409637;28;20056;-64
2024/03/15 05:45:07;;;;;;;12.95;7.55;;;;;;;10.78;71.20;99817.13;10396520;28;20081;-63
2024/03/15 05:50:09;;;;;;;15.30;7.75;;;;;;;10.82;71.37;99823.78;10399981;28;20065;-64
2024/03/15 05:55:11;;;;;;;15.88;9.13;;;;;;;10.89;71.62;99821.13;10396977;28;20068;-63
2024/03/15 06:00:13;;;;;;;15.30;8.63;;;;;;;11.00;71.71;99827.84;10423099;28;20056;-61
2024/03/15 06:05:18;;;;;;;12.95;7.82;;;;;;;11.08;71.59;99825.06;10448202;28;20353;-61
2024/03/15 06:10:20;;;;;;;15.57;7.63;;;;;;;11.13;71.85;99841.44;10436642;28;20101;-61
2024/03/15 06:15:21;;;;;;;15.23;6.88;;;;;;;11.19;71.59;99837.97;10449750;28;20030;-61
2024/03/15 06:20:23;;;;;;;17.45;7.50;;;;;;;11.31;71.85;99835.59;10454804;28;20076;-60
2024/03/15 06:25:25;;;;;;;12.25;7.45;;;;;;;11.43;71.83;99841.28;10450798;28;20036;-60
2024/03/15 06:30:27;;;;;;;11.70;6.85;;;;;;;11.55;72.02;99846.97;10448444;28;20056;-60
2024/03/15 06:35:30;;;;;;;11.40;7.53;;;;;;;11.74;71.34;99837.41;10452263;28;20029;-61
2024/03/15 06:40:42;;;;;;;11.13;7.68;;;;;;;11.85;70.97;99839.56;10444020;28;20041;-60
2024/03/15 06:52:31;;;;;;;14.32;7.10;;;;;;;12.06;71.41;99841.38;10446661;28;20057;-61
2024/03/15 06:56:23;;;;;;;13.18;7.38;;;;;;;12.17;71.38;99848.91;10413381;23;20038;-82
2024/03/15 07:01:27;;;;;;;10.73;6.30;;;;;;;12.34;71.20;99854.78;10353587;28;20150;-80
2024/03/15 07:06:29;;;;;;;14.65;6.35;;;;;;;12.49;71.29;99852.78;10354704;28;20084;-82
2024/03/15 07:11:34;;;;;;;7.97;5.90;;;;;;;12.72;70.92;99848.94;10358891;28;20608;-83
2024/03/15 07:16:39;;;;;;;11.05;6.90;;;;;;;12.92;70.33;99837.38;10356604;28;20045;-82
2024/03/15 07:21:42;;;;;;;8.30;5.70;;;;;;;13.12;70.26;99845.50;10325243;28;20065;-90
2024/03/15 07:26:44;;;;;;;10.48;5.25;;;;;;;13.12;70.20;99846.34;10328259;28;20101;-89
2024/03/15 07:31:47;;;;;;;14.95;5.60;;;;;;;13.12;70.15;99867.09;10326563;28;20053;-88
2024/03/15 07:36:49;;;;;;;11.40;5.72;;;;;;;12.92;70.45;99869.75;10327014;28;20062;-90
2024/03/15 07:41:50;;;;;;;12.75;6.20;;;;;;;12.84;70.46;99873.47;10425064;23;20056;-63
2024/03/15 07:46:52;;;;;;;9.48;6.05;;;;;;;12.87;70.68;99863.09;10431634;28;20042;-63
2024/03/15 07:51:56;;;;;;;8.90;5.32;;;;;;;13.04;70.52;99862.72;10419951;28;20132;-63
2024/03/15 07:56:57;;;;;;;7.82;5.07;;;;;;;13.15;69.85;99861.28;10384472;28;20065;-63
2024/03/15 08:01:59;;;;;;;7.75;5.10;;;;;;;13.19;69.98;99854.44;10395466;28;20168;-63
2024/03/15 08:07:01;;;;;;;8.93;5.18;;;;;;;13.24;70.14;99862.75;10385230;28;20050;-63
2024/03/15 08:12:04;;;;;;;7.07;5.05;;;;;;;13.28;69.89;99866.69;10389615;28;20054;-63
2024/03/15 08:17:06;;;;;;;8.90;4.95;;;;;;;13.56;69.53;99874.63;10390676;28;20105;-63
2024/03/15 08:22:08;;;;;;;8.00;4.85;;;;;;;13.85;68.81;99873.38;10371070;28;20068;-62
2024/03/15 08:27:10;;;;;;;7.32;4.70;;;;;;;14.01;68.41;99882.94;10366648;28;20061;-62
2024/03/15 08:32:12;;;;;;;8.88;4.90;;;;;;;13.96;68.46;99890.84;10375802;28;20105;-60
2024/03/15 08:37:13;;;;;;;9.32;4.93;;;;;;;13.99;68.15;99887.72;10388286;28;20030;-61
2024/03/15 08:42:14;;;;;;;9.93;4.78;;;;;;;14.10;68.00;99886.25;10390509;28;20106;-61
2024/03/15 08:47:18;;;;;;;6.53;3.72;;;;;;;14.12;67.78;99894.13;10394759;28;20037;-63
2024/03/15 08:52:19;;;;;;;5.97;3.75;;;;;;;14.18;67.35;99906.81;10397923;28;20034;-60
2024/03/15 08:57:22;;;;;;;5.28;3.33;;;;;;;14.37;66.78;99905.13;10417351;23;20051;-86
2024/03/15 09:02:26;;;;;;;7.63;3.53;;;;;;;14.42;66.52;99910.72;10383421;28;20140;-83
2024/03/15 09:07:31;;;;;;;5.47;3.40;;;;;;;14.44;66.18;99906.75;10395166;28;20026;-83
2024/03/15 09:12:35;;;;;;;7.80;4.40;;;;;;;14.65;65.97;99903.00;10365776;28;20462;-86
2024/03/15 09:17:41;;;;;;;10.07;3.85;;;;;;;15.02;65.24;99903.22;10350882;28;20061;-90
2024/03/15 09:22:44;;;;;;;4.90;3.50;;;;;;;15.49;64.41;99900.25;10375821;23;20062;-89
2024/03/15 09:27:53;;;;;;;6.88;4.47;;;;;;;15.91;63.34;99903.25;10322944;28;20137;-91
2024/03/15 09:32:59;;;;;;;5.80;4.03;;;;;;;15.95;63.30;99909.06;10319615;28;20065;-91
2024/03/15 09:38:01;;;;;;;8.00;3.72;;;;;;;15.85;63.27;99915.00;10308660;28;20038;-90
2024/03/15 09:43:04;;;;;;;7.50;3.25;;;;;;;15.84;63.23;99911.47;10322706;28;20543;-90
2024/03/15 09:48:11;;;;;;;5.50;3.28;;;;;;;15.71;63.38;99926.97;10339095;28;20065;-90
2024/03/15 09:58:21;;;;;;;4.32;3.65;;;;;;;15.65;62.91;99923.25;10238160;28;20040;-63
2024/03/15 10:03:23;;;;;;;9.38;4.35;;;;;;;15.55;63.17;99925.63;10233677;28;20056;-64
2024/03/15 10:08:24;;;;;;;6.25;3.58;;;;;;;15.56;63.09;99928.13;10242713;29;20055;-63
2024/03/15 10:13:32;;;;;;;9.20;3.92;;;;;;;15.65;62.67;99920.53;10237912;28;20047;-63
2024/03/15 10:18:40;;;;;;;5.25;3.15;;;;;;;15.75;62.68;99917.38;10239788;29;20078;-63
2024/03/15 10:23:41;;;;;;;6.50;3.45;;;;;;;15.77;62.39;99921.53;10239409;29;20055;-63
2024/03/15 10:28:44;;;;;;;6.43;2.88;;;;;;;15.91;62.32;99921.41;10240402;29;20466;-64
2024/03/15 10:33:45;;;;;;;8.32;2.30;;;;;;;15.98;62.15;99928.44;10238805;28;20061;-64
2024/03/15 10:38:48;;;;;;;4.90;2.47;;;;;;;16.14;62.02;99920.81;10246849;28;20035;-61
2024/03/15 10:43:49;;;;;;;3.72;2.17;;;;;;;16.06;62.27;99921.91;10290196;28;20143;-60
2024/03/15 10:48:52;;;;;;;7.88;2.00;;;;;;;16.00;62.69;99922.81;10293552;28;20063;-61
2024/03/15 10:53:54;;;;;;;3.00;1.70;;;;;;;15.81;62.84;99922.72;10291853;28;20051;-60
2024/03/15 10:58:56;;;;;;;2.53;1.70;;;;;;;15.70;63.36;99920.72;10267708;28;20034;-60
2024/03/15 11:03:57;;;;;;;2.38;1.52;;;;;;;15.50;64.23;99926.28;10292595;28;20051;-59
2024/03/15 11:09:11;;;;;;;3.53;1.55;;;;;;;15.72;63.81;99920.47;10292098;28;20081;-61
2024/03/15 11:14:14;;;;;;;1.90;1.10;;;;;;;15.79;63.93;99927.53;10347465;23;20050;-85
2024/03/15 11:19:15;;;;;;;2.05;1.17;;;;;;;15.92;63.68;99928.50;10288898;28;20061;-86
2024/03/15 11:24:17;;;;;;;3.55;1.15;;;;;;;15.95;64.16;99933.47;10278206;28;20059;-86
2024/03/15 11:29:21;;;;;;;3.40;1.10;;;;;;;15.88;64.23;99938.97;10239074;28;20066;-87
2024/03/15 11:34:25;;;;;;;2.95;2.40;;;;;;;15.95;64.22;99934.28;10235773;28;20125;-86
2024/03/15 11:39:27;;;;;;;2.38;1.50;;;;;;;15.98;64.05;99939.28;10249364;28;20051;-88
2024/03/15 11:44:29;;;;;;;4.20;1.60;;;;;;;15.94;64.47;99935.38;10258182;28;20202;-88
2024/03/15 11:49:31;;;;;;;2.58;1.60;;;;;;;15.94;64.46;99942.69;10227978;28;20475;-89
2024/03/15 11:54:32;;;;;;;3.25;1.27;;;;;;;15.96;64.40;99935.97;10272474;28;20079;-89
2024/03/15 11:59:34;;;;;;;1.48;1.00;;;;;;;16.02;64.23;99943.22;10251464;28;20071;-89
2024/03/15 12:04:39;;;;;;;1.88;1.00;;;;;;;16.03;64.30;99938.63;10257682;28;20055;-90
2024/03/15 12:09:42;;;;;;;4.25;1.42;;;;;;;16.12;64.49;99941.91;10256301;28;20056;-87
2024/03/15 12:14:43;;;;;;;5.18;1.55;;;;;;;16.12;64.27;99941.91;10230932;28;20064;-87
2024/03/15 12:19:45;;;;;;;2.95;1.65;;;;;;;16.03;64.80;99933.19;10231458;28;20102;-87
2024/03/15 12:24:47;;;;;;;2.33;1.70;;;;;;;15.98;64.93;99933.03;10239780;28;20047;-88
2024/03/15 12:29:49;;;;;;;1.95;1.20;;;;;;;16.00;65.25;99926.34;10224566;28;20072;-87
2024/03/15 12:34:50;;;;;;;3.85;1.60;;;;;;;15.96;65.68;99925.13;10216271;28;20039;-88
2024/03/15 12:39:53;;;;;;;2.92;1.75;;;;;;;15.88;66.11;99920.00;10235619;28;20059;-88
2024/03/15 12:44:55;;;;;;;3.42;1.52;;;;;;;16.60;64.95;99897.78;10232596;28;20146;-87
2024/03/15 12:49:56;;;;;;;3.97;1.00;;;;;;;19.74;57.60;99879.41;10198004;28;20087;-82
2024/03/15 12:54:58;;;;;;;0.80;0.70;;;;;;;21.47;54.56;99874.53;10220796;28;20091;-83
2024/03/15 13:00:00;;;;;;;1.33;1.17;;;;;;;23.77;49.65;99882.13;10216646;28;20066;-84
2024/03/15 13:05:01;;;;;;;2.75;0.93;;;;;;;23.31;50.91;99890.34;10195315;28;20441;-84
2024/03/15 13:10:03;;;;;;;3.78;1.35;;;;;;;21.35;54.46;99892.97;10209312;28;20503;-84
2024/03/15 13:15:13;;;;;;;2.00;1.15;;;;;;;20.28;56.10;99885.13;10222171;28;20070;-84
2024/03/15 13:20:15;;;;;;;1.27;0.95;;;;;;;19.63;57.38;99892.03;10221056;28;20500;-84
2024/03/15 13:25:17;;;;;;;1.92;0.93;;;;;;;19.89;56.36;99881.56;10219978;28;20051;-84
2024/03/15 13:30:37;;;;;;;1.92;0.70;;;;;;;19.78;56.07;99875.09;10206243;28;20403;-84
2024/03/15 13:35:41;;;;;;;0.90;0.50;;;;;;;19.74;56.17;99869.31;10226471;28;20397;-82
2024/03/15 13:40:44;;;;;;;1.15;0.38;;;;;;;20.09;54.92;99870.13;10247152;28;20183;-82
2024/03/15 13:45:45;;;;;;;0.65;0.35;;;;;;;19.57;56.30;99865.75;10244095;28;20064;-82
2024/03/15 13:50:47;;;;;;;0.40;0.32;;;;;;;19.32;56.28;99860.69;10244786;28;20055;-81
2024/03/15 13:55:52;;;;;;;1.02;0.50;;;;;;;19.14;56.30;99857.09;10219603;28;20062;-84
2024/03/15 14:00:57;;;;;;;1.17;0.30;;;;;;;18.94;56.59;99873.06;10215335;28;20131;-81
2024/03/15 14:06:03;;;;;;;0.95;0.50;;;;;;;18.54;56.67;99871.13;10218977;28;20055;-84
2024/03/15 14:11:07;;;;;;;0.73;0.35;;;;;;;18.35;56.79;99857.69;10271516;28;20087;-83
2024/03/15 14:16:09;;;;;;;2.70;0.50;;;;;;;18.56;56.30;99855.38;10271811;28;20055;-84
2024/03/15 14:21:14;;;;;;;1.48;0.70;;;;;;;18.26;56.48;99859.09;10260831;28;20047;-84
2024/03/15 14:26:16;;;;;;;2.40;0.80;;;;;;;18.13;56.41;99843.88;10259876;28;20083;-84
2024/03/15 14:31:18;;;;;;;2.58;0.70;;;;;;;18.03;56.54;99840.94;10259404;28;20107;-83
2024/03/15 14:36:19;;;;;;;2.60;0.75;;;;;;;18.00;56.70;99841.41;10236733;28;20044;-83
2024/03/15 14:41:21;;;;;;;2.40;0.95;;;;;;;18.00;56.49;99842.22;10235830;28;20103;-83
2024/03/15 14:46:24;;;;;;;1.75;0.73;;;;;;;17.86;56.54;99823.69;10253202;28;20055;-81
2024/03/15 14:51:25;;;;;;;1.67;0.77;;;;;;;18.24;56.28;99828.59;10280220;28;20400;-82
2024/03/15 14:56:27;;;;;;;4.00;0.50;;;;;;;20.15;52.04;99829.00;10268801;28;20554;-83
2024/03/15 15:01:28;;;;;;;1.35;0.40;;;;;;;21.78;48.80;99809.09;10267548;28;20043;-83
2024/03/15 15:06:30;;;;;;;1.15;0.50;;;;;;;22.07;48.11;99806.81;10302759;23;20472;-90
2024/03/15 15:11:32;;;;;;;2.00;0.60;;;;;;;20.83;49.83;99812.34;10404186;28;20058;-88
2024/03/15 15:16:34;;;;;;;0.82;0.65;;;;;;;20.21;51.02;99827.97;10429451;23;20083;-83
2024/03/15 15:21:39;;;;;;;1.92;0.55;;;;;;;19.69;51.76;99820.13;10371886;28;20113;-82
2024/03/15 15:26:42;;;;;;;1.38;0.57;;;;;;;19.91;50.86;99817.47;10361435;28;20058;-85
2024/03/15 15:31:43;;;;;;;1.73;0.60;;;;;;;19.65;50.74;99808.06;10344572;28;20053;-86
2024/03/15 15:36:45;;;;;;;2.20;0.50;;;;;;;19.35;51.70;99813.84;10344412;28;20062;-85
2024/03/15 15:41:47;;;;;;;1.40;0.50;;;;;;;19.36;51.32;99816.31;10345409;28;20077;-85
2024/03/15 15:46:49;;;;;;;1.73;0.50;;;;;;;19.36;51.23;99810.03;10335263;28;20050;-86
2024/03/15 15:51:50;;;;;;;2.15;0.40;;;;;;;19.09;51.58;99801.69;10326089;28;20054;-84
2024/03/15 15:56:54;;;;;;;1.33;0.70;;;;;;;18.95;51.47;99803.88;10329079;28;20428;-84
2024/03/15 16:01:56;;;;;;;0.85;0.40;;;;;;;18.61;52.13;99803.78;10340898;28;20083;-83
2024/03/15 16:06:58;;;;;;;3.15;0.50;;;;;;;18.48;52.56;99806.75;10329126;28;20532;-86
2024/03/15 16:12:00;;;;;;;2.20;0.40;;;;;;;18.34;52.77;99807.03;10344369;28;20054;-84
2024/03/15 16:17:01;;;;;;;1.65;0.50;;;;;;;18.13;53.40;99804.97;10348151;28;20053;-83
2024/03/15 16:22:03;;;;;;;1.17;0.45;;;;;;;18.01;53.32;99799.56;10343025;28;20050;-88
2024/03/15 16:27:05;;;;;;;3.13;0.60;;;;;;;17.96;53.52;99786.66;10346680;28;20057;-84
2024/03/15 16:32:07;;;;;;;2.90;0.55;;;;;;;17.87;53.69;99809.84;10339865;28;20136;-84
2024/03/15 16:37:09;;;;;;;1.55;0.30;;;;;;;17.71;54.08;99805.91;10339265;28;20050;-84
2024/03/15 16:42:17;;;;;;;3.95;0.50;;;;;;;17.64;54.27;99811.47;10320052;28;20045;-81
2024/03/15 16:47:19;;;;;;;3.53;0.40;;;;;;;17.58;54.45;99817.03;10356525;28;20950;-82
2024/03/15 16:52:22;;;;;;;2.72;0.35;;;;;;;17.43;54.82;99817.47;10345604;28;20053;-81
2024/03/15 16:57:26;;;;;;;1.15;0.30;;;;;;;17.34;54.75;99821.59;10344492;28;20038;-81
2024/03/15 17:02:27;;;;;;;2.63;0.68;;;;;;;17.31;55.18;99831.03;10343388;28;20433;-81
2024/03/15 17:07:29;;;;;;;4.85;0.40;;;;;;;17.25;54.84;99827.34;10342589;28;20105;-81
2024/03/15 17:12:32;;;;;;;2.25;0.40;;;;;;;17.12;55.53;99819.44;10340694;28;20404;-82
2024/03/15 17:17:33;;;;;;;0.47;0.30;;;;;;;17.09;55.26;99838.06;10342320;28;20186;-86
2024/03/15 17:22:36;;;;;;;1.13;0.50;;;;;;;17.06;55.38;99839.34;10332903;28;20125;-86
2024/03/15 17:27:38;;;;;;;7.47;0.55;;;;;;;16.92;55.59;99848.75;10353087;28;20516;-86
2024/03/15 17:32:41;;;;;;;1.45;0.47;;;;;;;16.88;55.50;99842.13;10341108;28;20036;-81
2024/03/15 17:37:46;;;;;;;3.80;0.28;;;;;;;16.67;55.70;99849.69;10350443;28;20066;-82
2024/03/15 17:42:47;;;;;;;1.77;0.50;;;;;;;16.52;56.74;99855.47;10355215;28;20112;-82
2024/03/15 17:47:49;;;;;;;2.40;0.32;;;;;;;16.44;56.85;99872.91;10333119;28;20510;-82
2024/03/15 17:52:50;;;;;;;5.18;0.38;;;;;;;16.33;57.36;99865.53;10352684;28;20057;-82
2024/03/15 17:57:53;;;;;;;0.73;0.20;;;;;;;16.29;57.20;99883.31;10357192;28;20050;-85
2024/03/15 18:02:55;;;;;;;3.25;0.40;;;;;;;16.28;57.28;99878.94;10363251;28;20057;-85
2024/03/15 18:07:57;;;;;;;2.45;0.63;;;;;;;16.21;57.77;99889.00;10358372;28;20054;-84
2024/03/15 18:12:59;;;;;;;1.27;0.30;;;;;;;16.22;57.18;99886.06;10337225;28;20323;-87
2024/03/15 18:18:00;;;;;;;1.98;0.20;;;;;;;16.15;57.78;99885.34;10340618;28;20153;-87
2024/03/15 18:23:05;;;;;;;1.15;0.50;;;;;;;16.08;58.14;99891.88;10371282;28;20058;-88
2024/03/15 18:28:06;;;;;;;3.85;0.30;;;;;;;16.05;58.54;99895.84;10361619;28;20093;-90
2024/03/15 18:33:09;;;;;;;2.50;1.40;;;;;;;16.04;58.38;99908.56;10351951;28;20054;-88
2024/03/15 18:38:11;;;;;;;3.90;0.50;;;;;;;16.00;58.76;99914.69;10356984;28;20133;-87
2024/03/15 18:43:12;;;;;;;1.58;0.20;;;;;;;15.91;58.88;99916.00;10332661;28;20050;-83
2024/03/15 18:48:15;;;;;;;2.05;0.45;;;;;;;15.96;59.07;99925.13;10346672;28;20068;-83
2024/03/15 18:53:17;;;;;;;1.60;0.32;;;;;;;15.92;59.28;99923.09;10372065;28;20077;-84
2024/03/15 18:58:18;;;;;;;2.20;0.30;;;;;;;15.95;59.39;99928.88;10373972;28;20050;-84
2024/03/15 19:03:21;;;;;;;4.28;0.40;;;;;;;15.90;59.78;99927.91;10357712;28;20054;-83
2024/03/15 19:08:22;;;;;;;3.78;1.15;;;;;;;15.86;59.79;99931.03;10371630;28;20053;-81
2024/03/15 19:13:24;;;;;;;2.90;0.47;;;;;;;15.86;60.10;99924.81;10357934;28;20147;-81
2024/03/15 19:18:26;;;;;;;2.03;0.50;;;;;;;15.87;60.59;99937.28;10373788;28;20078;-81
2024/03/15 19:23:28;;;;;;;1.45;0.52;;;;;;;15.81;60.59;99928.16;10353446;28;20050;-81
2024/03/15 19:28:30;;;;;;;3.35;0.50;;;;;;;15.80;60.93;99925.69;10358441;28;20089;-81
2024/03/15 19:33:37;;;;;;;2.42;0.45;;;;;;;15.82;61.02;99918.16;10381300;28;20060;-80
2024/03/15 19:38:38;;;;;;;2.13;0.70;;;;;;;15.68;61.47;99912.00;10362221;28;20089;-80
2024/03/15 19:43:41;;;;;;;5.53;1.80;;;;;;;15.58;61.67;99917.91;10344971;28;20111;-87
2024/03/15 19:48:43;;;;;;;4.25;0.82;;;;;;;15.52;61.73;99917.94;10361590;28;20050;-88
2024/03/15 19:53:46;;;;;;;1.88;0.77;;;;;;;15.46;61.88;99925.91;10334726;28;20059;-89
2024/03/15 19:58:49;;;;;;;1.88;0.47;;;;;;;15.33;62.63;99947.63;10330274;28;20043;-89
2024/03/15 20:03:51;;;;;;;3.70;0.80;;;;;;;15.00;63.80;99939.69;10352047;28;20054;-89
2024/03/15 20:08:52;;;;;;;6.00;0.90;;;;;;;14.69;65.09;99949.38;10350820;28;20041;-88
2024/03/15 20:13:54;;;;;;;5.57;0.80;;;;;;;14.50;65.75;99952.94;10347475;28;20050;-88
2024/03/15 20:18:57;;;;;;;6.28;1.00;;;;;;;14.46;65.86;99953.34;10347484;28;20061;-89
2024/03/15 20:24:01;;;;;;;3.15;0.90;;;;;;;14.41;66.04;99960.44;10355241;28;20100;-88
2024/03/15 20:29:04;;;;;;;4.95;1.08;;;;;;;14.39;66.35;99959.81;10341127;28;20501;-89
2024/03/15 20:34:07;;;;;;;3.92;1.00;;;;;;;14.35;66.55;99983.72;10360060;28;20046;-88
2024/03/15 20:39:12;;;;;;;5.18;2.40;;;;;;;14.46;66.18;99984.97;10356593;28;20060;-89
2024/03/15 20:44:15;;;;;;;1.77;0.40;;;;;;;14.39;65.76;99987.69;10361013;28;20053;-89
2024/03/15 20:49:17;;;;;;;0.40;0.00;;;;;;;14.19;65.54;99993.09;10355726;28;20050;-89
2024/03/15 20:54:22;;;;;;;0.55;0.55;;;;;;;14.12;65.23;99994.16;10354402;28;20058;-89
2024/03/15 20:59:24;;;;;;;0.10;0.00;;;;;;;14.04;64.97;99990.63;10373891;28;20096;-84
2024/03/15 21:04:25;;;;;;;0.30;0.10;;;;;;;13.90;64.98;99999.75;10375213;28;20046;-83
2024/03/15 21:09:28;;;;;;;0.32;0.20;;;;;;;13.91;64.66;100001.44;10361016;28;20045;-83
2024/03/15 21:14:30;;;;;;;0.22;0.20;;;;;;;13.97;64.42;99999.78;10350307;28;20054;-83
2024/03/15 21:19:32;;;;;;;1.20;0.30;;;;;;;13.99;64.23;99985.00;10369266;28;20042;-83
2024/03/15 21:24:33;;;;;;;1.10;0.52;;;;;;;13.97;64.41;99992.50;10338717;28;20557;-82
2024/03/15 21:29:35;;;;;;;0.20;0.10;;;;;;;13.98;64.40;99982.50;10332498;28;20137;-82
2024/03/15 21:34:37;;;;;;;0.32;0.15;;;;;;;13.97;64.45;99989.78;10327211;28;20045;-82
2024/03/15 21:39:40;;;;;;;0.40;0.22;;;;;;;13.96;64.53;99990.84;10341870;28;20053;-83
2024/03/15 21:44:42;;;;;;;1.75;0.40;;;;;;;13.98;64.09;99985.19;10314402;28;20585;-82
2024/03/15 21:49:49;;;;;;;0.85;0.30;;;;;;;13.98;64.61;99999.56;10370588;28;20058;-81
2024/03/15 21:54:51;;;;;;;0.20;0.10;;;;;;;13.81;64.64;100001.00;10339463;28;20064;-81
2024/03/15 21:59:54;;;;;;;0.45;0.20;;;;;;;13.84;64.48;100005.97;10374220;28;20060;-82
2024/03/15 22:04:56;;;;;;;0.50;0.25;;;;;;;13.87;64.20;100000.19;10366569;28;20060;-81
2024/03/15 22:09:59;;;;;;;1.10;0.43;;;;;;;13.88;64.21;99999.13;10357083;28;20169;-81
2024/03/15 22:15:01;;;;;;;0.13;0.10;;;;;;;13.82;64.23;99990.00;10374280;28;20081;-82
2024/03/15 22:20:05;;;;;;;1.13;0.15;;;;;;;13.78;64.42;99996.00;10349051;28;20053;-82
2024/03/15 22:25:09;;;;;;;0.88;0.20;;;;;;;13.71;64.22;99989.78;10346522;28;20050;-82
2024/03/15 22:30:27;;;;;;;0.22;0.20;;;;;;;13.67;64.25;99987.47;10345950;28;20058;-82
2024/03/15 22:35:29;;;;;;;0.63;0.20;;;;;;;13.62;64.24;99998.03;10318246;28;20077;-82
2024/03/15 22:40:30;;;;;;;0.38;0.10;;;;;;;13.57;64.45;100003.25;10344055;28;20112;-82
2024/03/15 22:45:32;;;;;;;0.93;0.10;;;;;;;13.58;63.94;99999.50;10348691;28;20065;-82
2024/03/15 22:50:35;;;;;;;2.20;0.40;;;;;;;13.62;64.25;99997.22;10325993;28;20057;-81
2024/03/15 22:55:37;;;;;;;2.25;0.32;;;;;;;13.70;64.04;99991.63;10343577;28;20676;-81
2024/03/15 23:00:42;;;;;;;1.98;0.40;;;;;;;13.73;64.14;99993.94;10345026;28;20061;-81
2024/03/15 23:05:45;;;;;;;0.77;0.40;;;;;;;13.69;64.47;99990.78;10343346;28;20133;-81
2024/03/15 23:10:47;;;;;;;7.47;1.42;;;;;;;13.53;65.17;100002.00;10327695;28;20452;-81
2024/03/15 23:15:51;;;;;;;1.00;0.60;;;;;;;13.46;65.96;100001.13;10329393;28;20432;-81
2024/03/15 23:20:52;;;;;;;1.70;0.70;;;;;;;13.55;66.09;99997.22;10339596;28;20058;-81
2024/03/15 23:25:54;;;;;;;3.53;1.50;;;;;;;13.63;66.26;99993.50;10313285;28;20572;-83
2024/03/15 23:30:56;;;;;;;2.65;0.98;;;;;;;13.52;66.52;99986.81;10332793;28;20264;-81
2024/03/15 23:35:58;;;;;;;3.55;1.17;;;;;;;13.34;67.39;99979.28;10344931;28;20133;-81